Disclaimer

Please do not use the information listed here in-flight or in-navigation, as they are not provided to us by the airports but are provided by volunteers, so they might be outdated.

Search


Regions


Airport information page

Radio informations:
Tower (TWR) - 118.0 MHz
INFO - 124.3 MHz

Airport informations:
Latitude: 41° 14' 53.00" N
Longitude: 008° 40' 53.00" W
Elevation: 228 feet - 69 meters
Operating hours: 24 hour operations
Operating agency: Civil government, landing fees and diplomatic clearance may be required
Timezone: UTC 0(+1DT) - Last Sunday in March to last Sunday in October
Fuel: Jet A1, without icing nhibitor.

100/130 MIL Spec, low lead, aviation gasoline (BLUE)

Runway information:
17/35 - 11417 x 148 feet< - >3480 x 45 meters

Recent METARs:
LPPR 170700Z 11010KT 070V190 CAVOK 14/11 Q1010
LPPR 170730Z 10010KT CAVOK 14/11 Q1010
LPPR 170800Z 11009KT CAVOK 14/10 Q1010

Airport on the map: